Speaks, Texas
Current Conditions -  °F | °C
As of 10:35 PM on Sunday 25 Jan 2015 (Local Time) from K66R Reporting Station
Clear Clear  
Wind Chill: 47°   Ceiling: Unl
Heat Index: 49°   Visibility: 10mi
Dew Point: 35°   Wind: 6mph
Humidity: 58%   Direction: 330°NNW
Pressure: 30.16"   Gusts: NA
Location:  29.25°N, 96.7°W
Report Text: K66R 260435Z AUTO 33005KT 10SM CLR 10/02 A3016 RMK AO2 T00960016
Loading
Personal Weather Stations






























Interactive Weather Map New forecast layout! Learn more

10-Day Weather Forecast

Advertisements
Track Severe Weather on mobile